Aviation Digital Data Service (ADDS)

Output produced by METARs form (2004 UTC 24 March 2017)
found at http://www.aviationweather.gov/adds/metars/
 
KATL 241930Z 2420/2524 15012G16KT P6SM FEW060 BKN250 
     FM250000 13007KT P6SM FEW150 BKN250 
     FM250900 14006KT P6SM SCT012 BKN022 
     FM251500 16011KT P6SM BKN035 
     FM251900 16011KT P6SM BKN040 
     PROB30 2522/2524 -TSRA BKN035CB